Terminal Aerodrome Forecast
Issued by NWS

Home | Current Version | Previous Version | Text Only | Print | Product List | Glossary On
Versions: 1 2 3 4 5 6 7 8 9 10 11 12 13 14 15 16 17 18 19 20 21 22 23 24 25 26 27 28 29 30 31 32 33 34
000
FTUS45 KLKN 290520
TAFWMC
TAF
KWMC 290520Z 2906/3006 12004KT P6SM SCT250
     FM290900 08004KT P6SM VCFG BKN250
     FM291500 06005KT P6SM BKN150
     FM291900 03007KT P6SM OVC120=

USA.gov is the U.S. government's official web portal to all federal, state and local government web resources and services.